Time;durP1;ratioP1;P1;durP2;ratioP2;P2;SDS_P1;SDS_P2;PMS_P1;PMS_P2;Temp;Humidity;BMP_temperature;BMP_pressure;BME280_temperature;BME280_humidity;BME280_pressure;Samples;Min_cycle;Max_cycle;Signal;HPM_P1;HPM_P2
2021/09/17 00:00:34;;;;;;;;;;;;;;;;;;;;;
2021/09/17 00:03:11;;;;;;;4.05;3.03;;;19.30;99.90;;;;;;4955649;28;20045;-92
2021/09/17 00:05:45;;;;;;;4.38;2.97;;;19.30;99.90;;;;;;4956133;28;20023;-93
2021/09/17 00:08:24;;;;;;;4.40;2.83;;;19.40;99.90;;;;;;4973597;28;20067;-96
2021/09/17 00:10:55;;;;;;;4.35;3.20;;;19.30;99.90;;;;;;4954809;28;20471;-93
2021/09/17 00:13:44;;;;;;;3.22;2.65;;;19.30;99.90;;;;;;4954378;28;20047;-93
2021/09/17 00:16:33;;;;;;;4.07;2.63;;;19.40;99.90;;;;;;4954212;28;20134;-94
2021/09/17 00:19:24;;;;;;;5.78;3.13;;;19.40;99.90;;;;;;4954242;28;20038;-93
2021/09/17 00:21:52;;;;;;;4.00;2.80;;;19.30;99.90;;;;;;4948213;28;20453;-93
2021/09/17 00:24:20;;;;;;;3.13;2.70;;;19.30;99.90;;;;;;4959577;28;20023;-94
2021/09/17 00:27:01;;;;;;;9.70;3.60;;;19.20;99.90;;;;;;4979476;28;20032;-93
2021/09/17 00:29:38;;;;;;;6.65;2.55;;;19.20;99.90;;;;;;4978026;28;20035;-94
2021/09/17 00:32:07;;;;;;;3.92;2.70;;;19.20;99.90;;;;;;4949332;28;20448;-94
2021/09/17 00:34:35;;;;;;;4.45;2.70;;;19.30;99.90;;;;;;4955080;28;20027;-93
2021/09/17 00:37:15;;;;;;;5.55;2.80;;;19.40;99.90;;;;;;4955026;28;20031;-94
2021/09/17 00:39:56;;;;;;;;;;;;;;;;;;;;;
2021/09/17 00:42:55;;;;;;;3.53;2.90;;;19.40;99.90;;;;;;4955113;28;20058;-92
2021/09/17 00:45:28;;;;;;;4.13;2.97;;;19.40;99.90;;;;;;4954368;28;20496;-93
2021/09/17 00:51:52;;;;;;;6.28;3.00;;;19.30;99.90;;;;;;4940433;29;20024;-93
2021/09/17 00:54:37;;;;;;;;;;;;;;;;;;;;;
2021/09/17 00:57:40;;;;;;;5.82;2.85;;;19.30;99.90;;;;;;4954851;28;20024;-92
2021/09/17 01:00:08;;;;;;;;;;;;;;;;;;;;;
2021/09/17 01:02:34;;;;;;;6.47;2.75;;;19.10;99.90;;;;;;4954675;28;21524;-94
2021/09/17 01:05:05;;;;;;;5.22;2.70;;;19.10;99.90;;;;;;4953566;28;20035;-93
2021/09/17 01:07:34;;;;;;;5.05;2.97;;;19.20;99.90;;;;;;4953488;28;20365;-94
2021/09/17 01:10:00;;;;;;;5.47;2.83;;;19.10;99.90;;;;;;4953775;28;20026;-93
2021/09/17 01:12:34;;;;;;;4.32;2.63;;;19.10;99.90;;;;;;4953520;28;20039;-93
2021/09/17 01:15:09;;;;;;;4.68;2.60;;;19.00;99.90;;;;;;4940423;29;20043;-94
2021/09/17 01:17:48;;;;;;;6.03;2.88;;;18.90;99.90;;;;;;4953054;28;20035;-94
2021/09/17 01:20:19;;;;;;;5.72;3.00;;;18.90;99.90;;;;;;4953472;28;20118;-94
2021/09/17 01:22:50;;;;;;;4.15;2.92;;;18.90;99.90;;;;;;4951756;28;20110;-93
2021/09/17 01:25:19;;;;;;;4.95;3.47;;;18.80;99.90;;;;;;4953184;28;20482;-93
2021/09/17 01:27:53;;;;;;;5.63;2.90;;;18.70;99.90;;;;;;4953000;28;20023;-93
2021/09/17 01:33:16;;;;;;;;;;;18.70;99.90;;;;;;4954507;28;20032;-94
2021/09/17 01:36:12;;;;;;;;;;;;;;;;;;;;;
2021/09/17 01:38:53;;;;;;;6.93;2.83;;;18.70;99.90;;;;;;4944448;28;20028;-93
2021/09/17 01:41:24;;;;;;;6.68;2.97;;;18.60;99.90;;;;;;4953683;29;20058;-93
2021/09/17 01:43:55;;;;;;;5.20;2.65;;;18.60;99.90;;;;;;4953437;28;20031;-93
2021/09/17 01:46:36;;;;;;;;;;;;;;;;;;;;;
2021/09/17 01:49:30;;;;;;;5.75;3.33;;;18.60;99.90;;;;;;4954903;28;20050;-93
2021/09/17 01:52:25;;;;;;;6.57;2.65;;;18.60;99.90;;;;;;4953104;28;20031;-94
2021/09/17 01:54:53;;;;;;;4.18;2.40;;;18.60;99.90;;;;;;4952268;28;20031;-94
2021/09/17 01:57:29;;;;;;;5.25;2.63;;;18.70;99.90;;;;;;4972973;28;20026;-93
2021/09/17 01:59:57;;;;;;;6.88;2.42;;;18.70;99.90;;;;;;4953189;28;20027;-92
2021/09/17 02:03:13;;;;;;;3.78;2.00;;;18.80;99.90;;;;;;4952496;28;20102;-93
2021/09/17 02:06:12;;;;;;;5.88;2.13;;;18.80;99.90;;;;;;4944345;28;20555;-93
2021/09/17 02:11:57;;;;;;;5.65;2.30;;;18.70;99.90;;;;;;4912418;29;20048;-95
2021/09/17 02:14:30;;;;;;;5.70;2.20;;;18.70;99.90;;;;;;4951733;28;20043;-93
2021/09/17 02:17:04;;;;;;;8.98;2.10;;;18.80;99.90;;;;;;4952463;28;20031;-94
2021/09/17 02:19:55;;;;;;;3.72;2.13;;;18.70;99.90;;;;;;4952333;29;20063;-93
2021/09/17 02:22:36;;;;;;;6.65;2.38;;;18.70;99.90;;;;;;4953273;28;20030;-94
2021/09/17 02:25:34;;;;;;;;;;;;;;;;;;;;;
2021/09/17 02:28:03;;;;;;;4.95;1.95;;;18.70;99.90;;;;;;4946954;29;20527;-93
2021/09/17 02:33:32;;;;;;;4.68;1.90;;;18.70;99.90;;;;;;4953350;28;20039;-93
2021/09/17 02:36:22;;;;;;;4.18;1.90;;;18.60;99.90;;;;;;4952834;28;20523;-94
2021/09/17 02:39:15;;;;;;;4.35;1.85;;;18.60;99.90;;;;;;4953557;28;20039;-94
2021/09/17 02:42:16;;;;;;;5.15;2.08;;;18.50;99.90;;;;;;4953366;28;20081;-93
2021/09/17 02:44:44;;;;;;;2.47;1.80;;;18.60;99.90;;;;;;4940942;29;20023;-93
2021/09/17 02:47:20;;;;;;;4.20;1.60;;;18.60;99.90;;;;;;4952399;28;20027;-93
2021/09/17 02:49:48;;;;;;;4.70;2.05;;;18.60;99.90;;;;;;4936628;29;20476;-95
2021/09/17 02:52:16;;;;;;;5.32;2.15;;;18.60;99.90;;;;;;4952181;28;20043;-94
2021/09/17 02:55:03;;;;;;;3.17;1.90;;;18.60;99.90;;;;;;4952517;28;20047;-96
2021/09/17 02:57:29;;;;;;;6.07;1.80;;;18.50;99.90;;;;;;4952754;28;20023;-94
2021/09/17 03:00:02;;;;;;;5.18;1.80;;;18.50;99.90;;;;;;4952623;28;20085;-93
2021/09/17 03:02:33;;;;;;;2.42;1.30;;;18.60;99.90;;;;;;4952299;28;20143;-92
2021/09/17 03:05:04;;;;;;;3.30;1.80;;;18.70;99.90;;;;;;4952070;28;20042;-93
2021/09/17 03:07:39;;;;;;;2.40;1.60;;;18.60;99.90;;;;;;4952180;28;20027;-93
2021/09/17 03:10:30;;;;;;;;;;;;;;;;;;;;;
2021/09/17 03:12:56;;;;;;;3.03;1.50;;;18.50;99.90;;;;;;4952782;28;20073;-93
2021/09/17 03:15:27;;;;;;;3.33;1.60;;;18.50;99.90;;;;;;4932748;29;20119;-94
2021/09/17 03:17:56;;;;;;;5.80;2.03;;;18.50;99.90;;;;;;4932607;29;20036;-93
2021/09/17 03:20:44;;;;;;;5.38;2.00;;;18.50;99.90;;;;;;4932242;29;20258;-94
2021/09/17 03:23:37;;;;;;;5.72;1.80;;;18.40;99.90;;;;;;4932545;29;20023;-94
2021/09/17 03:26:08;;;;;;;3.22;1.50;;;18.40;99.90;;;;;;4931460;29;20115;-93
2021/09/17 03:28:46;;;;;;;5.25;1.70;;;18.30;99.90;;;;;;4940800;29;20036;-94
2021/09/17 03:31:23;;;;;;;5.57;1.70;;;18.30;99.90;;;;;;4932054;29;20468;-94
2021/09/17 03:34:01;;;;;;;;;;;;;;;;;;;;;
2021/09/17 03:36:42;;;;;;;7.88;2.03;;;18.30;99.90;;;;;;4933759;29;20028;-94
2021/09/17 03:39:20;;;;;;;5.05;1.70;;;18.30;99.90;;;;;;4932043;29;20027;-93
2021/09/17 03:41:46;;;;;;;6.68;1.80;;;18.20;99.90;;;;;;4932790;29;20062;-95
2021/09/17 03:44:13;;;;;;;7.03;1.45;;;18.20;99.90;;;;;;4933272;29;20125;-96
2021/09/17 03:46:53;;;;;;;6.60;1.50;;;18.30;99.90;;;;;;4935822;29;20041;-95
2021/09/17 03:49:28;;;;;;;5.28;1.55;;;18.30;99.90;;;;;;4933734;29;20047;-95
2021/09/17 03:52:04;;;;;;;;;;;;;;;;;;;;;
2021/09/17 03:54:33;;;;;;;8.10;1.77;;;18.20;99.90;;;;;;4893333;29;20054;-94
2021/09/17 03:56:59;;;;;;;5.53;1.65;;;18.20;99.90;;;;;;4922922;29;20476;-94
2021/09/17 03:59:27;;;;;;;6.80;1.90;;;18.10;99.90;;;;;;4931676;29;20128;-94
2021/09/17 04:02:05;;;;;;;;;;;;;;;;;;;;;
2021/09/17 04:04:34;;;;;;;2.78;0.95;;;18.10;99.90;;;;;;4933051;29;20404;-96
2021/09/17 04:07:00;;;;;;;4.93;1.77;;;18.10;99.90;;;;;;4932208;29;20079;-95
2021/09/17 04:09:26;;;;;;;7.85;2.00;;;18.20;99.90;;;;;;4931926;29;20031;-95
2021/09/17 04:11:57;;;;;;;5.00;1.33;;;18.10;99.90;;;;;;4931762;29;20518;-95
2021/09/17 04:14:26;;;;;;;3.75;1.38;;;18.20;99.90;;;;;;4943048;28;20063;-94
2021/09/17 04:16:57;;;;;;;4.47;1.60;;;18.10;99.90;;;;;;4953198;28;20091;-94
2021/09/17 04:19:23;;;;;;;6.75;1.77;;;18.20;99.90;;;;;;4954495;28;20032;-94
2021/09/17 04:21:49;;;;;;;2.22;1.02;;;18.10;99.90;;;;;;4954320;28;20524;-94
2021/09/17 04:24:19;;;;;;;2.92;1.23;;;18.10;99.90;;;;;;4954287;28;20031;-95
2021/09/17 04:27:03;;;;;;;3.60;1.27;;;18.10;99.90;;;;;;4954419;28;20112;-94
2021/09/17 04:29:29;;;;;;;4.85;1.30;;;18.20;99.90;;;;;;4953413;28;20023;-96
2021/09/17 04:31:58;;;;;;;4.22;1.00;;;18.20;99.90;;;;;;4954835;28;20403;-95
2021/09/17 04:34:23;;;;;;;5.38;1.33;;;18.10;99.90;;;;;;4954949;28;20027;-95
2021/09/17 04:36:52;;;;;;;3.88;1.60;;;18.20;99.90;;;;;;4954941;28;20504;-95
2021/09/17 04:39:18;;;;;;;5.30;1.30;;;18.20;99.90;;;;;;4954700;28;20019;-94
2021/09/17 04:41:44;;;;;;;5.68;1.27;;;18.10;99.90;;;;;;4954734;28;20483;-95
2021/09/17 04:44:12;;;;;;;5.03;1.27;;;18.00;99.90;;;;;;4954027;28;20094;-94
2021/09/17 04:46:40;;;;;;;4.28;1.35;;;18.00;99.90;;;;;;4953670;28;20118;-94
2021/09/17 04:49:08;;;;;;;3.22;1.20;;;18.00;99.90;;;;;;4954235;28;20423;-94
2021/09/17 04:51:34;;;;;;;2.35;1.58;;;18.00;99.90;;;;;;4937491;28;20477;-95
2021/09/17 04:54:03;;;;;;;6.38;1.55;;;18.00;99.90;;;;;;4946325;28;20090;-95
2021/09/17 04:56:29;;;;;;;4.32;1.40;;;18.00;99.90;;;;;;4953975;28;20028;-94
2021/09/17 04:58:55;;;;;;;4.53;1.30;;;17.90;99.90;;;;;;4954264;28;20117;-95
2021/09/17 05:01:21;;;;;;;3.78;1.30;;;17.90;99.90;;;;;;4954471;28;20091;-94
2021/09/17 05:03:47;;;;;;;7.03;1.88;;;17.90;99.90;;;;;;4954175;28;20024;-94
2021/09/17 05:06:13;;;;;;;4.78;1.17;;;17.80;99.90;;;;;;4954246;28;20031;-94
2021/09/17 05:08:39;;;;;;;5.15;1.23;;;17.80;99.90;;;;;;4954673;28;20441;-94
2021/09/17 05:11:05;;;;;;;5.13;1.13;;;17.80;99.90;;;;;;4954440;28;20226;-95
2021/09/17 05:13:30;;;;;;;5.20;1.30;;;17.80;99.90;;;;;;4953232;28;20039;-94
2021/09/17 05:15:56;;;;;;;5.03;1.27;;;17.80;99.90;;;;;;4953570;28;20031;-94
2021/09/17 05:18:25;;;;;;;3.03;1.23;;;17.80;99.90;;;;;;4952469;28;20091;-94
2021/09/17 05:20:53;;;;;;;3.10;0.98;;;17.80;99.90;;;;;;4953207;28;20031;-95
2021/09/17 05:23:19;;;;;;;4.07;1.30;;;17.70;99.90;;;;;;4953371;28;20031;-95
2021/09/17 05:25:53;;;;;;;4.72;1.40;;;17.80;99.90;;;;;;4953105;29;20090;-94
2021/09/17 05:28:35;;;;;;;;;;;17.80;99.90;;;;;;4953139;28;20027;-94
2021/09/17 05:31:18;;;;;;;;;;;;;;;;;;;;;
2021/09/17 05:33:45;;;;;;;4.50;1.00;;;17.90;99.90;;;;;;4953967;28;20073;-94
2021/09/17 05:36:14;;;;;;;5.70;1.20;;;17.90;99.90;;;;;;4956732;28;20090;-94
2021/09/17 05:38:47;;;;;;;4.20;1.27;;;18.00;99.90;;;;;;4963766;28;20031;-94
2021/09/17 05:41:14;;;;;;;3.85;1.13;;;18.10;99.90;;;;;;4953075;28;20039;-93
2021/09/17 05:43:40;;;;;;;3.33;1.00;;;18.10;99.90;;;;;;4953946;28;20039;-93
2021/09/17 05:46:09;;;;;;;5.13;1.50;;;18.10;99.90;;;;;;4954123;28;20035;-95
2021/09/17 05:48:40;;;;;;;4.40;1.38;;;18.20;99.90;;;;;;4952633;28;20023;-93
2021/09/17 05:51:05;;;;;;;4.45;1.33;;;18.20;99.90;;;;;;4954907;28;20090;-95
2021/09/17 05:53:47;;;;;;;5.82;1.10;;;18.30;99.90;;;;;;4954918;28;20073;-93
2021/09/17 05:56:21;;;;;;;7.45;1.50;;;18.40;99.90;;;;;;4953971;28;20563;-93
2021/09/17 05:58:47;;;;;;;5.75;0.90;;;18.40;99.90;;;;;;4952076;28;20043;-93
2021/09/17 06:01:13;;;;;;;6.30;1.33;;;18.50;99.90;;;;;;4952700;28;20027;-93
2021/09/17 06:03:41;;;;;;;4.35;1.15;;;18.50;99.90;;;;;;4953372;28;20035;-94
2021/09/17 06:06:18;;;;;;;;;;;;;;;;;;;;;
2021/09/17 06:08:52;;;;;;;5.63;1.48;;;18.50;99.90;;;;;;4953727;28;20035;-93
2021/09/17 06:11:20;;;;;;;7.07;1.50;;;18.50;99.90;;;;;;4952733;28;20027;-93
2021/09/17 06:13:59;;;;;;;;;;;;;;;;;;;;;
2021/09/17 06:16:28;;;;;;;5.55;1.35;;;18.60;99.90;;;;;;4953406;28;20035;-93
2021/09/17 06:19:01;;;;;;;2.95;1.10;;;18.60;99.90;;;;;;4951572;28;20031;-93
2021/09/17 06:21:33;;;;;;;6.05;1.17;;;18.60;99.90;;;;;;4951327;28;20034;-93
2021/09/17 06:24:05;;;;;;;4.00;1.02;;;18.70;99.90;;;;;;4952200;28;20027;-93
2021/09/17 06:26:42;;;;;;;3.28;1.30;;;18.70;99.90;;;;;;4951818;28;20118;-93
2021/09/17 06:29:18;;;;;;;5.80;1.50;;;18.80;99.90;;;;;;4952338;28;20016;-94
2021/09/17 06:31:48;;;;;;;3.53;1.38;;;18.90;99.90;;;;;;4952007;28;20054;-93
2021/09/17 06:34:14;;;;;;;2.95;1.20;;;18.90;99.90;;;;;;4936779;28;20140;-90
2021/09/17 06:36:40;;;;;;;4.03;1.42;;;18.90;99.90;;;;;;4944294;28;20110;-91
2021/09/17 06:39:05;;;;;;;3.17;1.38;;;18.90;99.90;;;;;;4950913;28;20480;-91
2021/09/17 06:41:31;;;;;;;6.97;1.58;;;19.00;99.90;;;;;;4952823;28;20032;-91
2021/09/17 06:43:57;;;;;;;2.15;1.33;;;19.00;99.90;;;;;;4951291;28;20114;-92
2021/09/17 06:46:23;;;;;;;4.93;1.65;;;19.00;99.90;;;;;;4952594;28;20022;-91
2021/09/17 06:48:49;;;;;;;2.88;1.30;;;19.00;99.90;;;;;;4951466;28;20027;-91
2021/09/17 06:51:15;;;;;;;3.42;1.27;;;19.00;99.90;;;;;;4951068;28;20387;-90
2021/09/17 06:53:41;;;;;;;4.55;1.30;;;19.00;99.90;;;;;;4950980;28;20138;-91
2021/09/17 06:56:06;;;;;;;3.53;1.30;;;19.10;99.90;;;;;;4950917;28;20114;-91
2021/09/17 06:58:32;;;;;;;4.53;1.17;;;19.10;99.90;;;;;;4950978;28;20118;-91
2021/09/17 07:00:59;;;;;;;3.67;1.23;;;19.20;99.90;;;;;;4950909;28;20028;-91
2021/09/17 07:03:25;;;;;;;6.00;1.60;;;19.20;99.90;;;;;;4951899;28;20030;-90
2021/09/17 07:05:50;;;;;;;5.20;1.27;;;19.20;99.90;;;;;;4950572;28;20423;-90
2021/09/17 07:08:18;;;;;;;4.78;1.05;;;19.20;99.90;;;;;;4952229;28;20043;-90
2021/09/17 07:10:44;;;;;;;5.55;1.40;;;19.30;99.90;;;;;;4950596;28;20019;-87
2021/09/17 07:13:11;;;;;;;5.50;1.38;;;19.30;99.90;;;;;;4951705;28;20046;-88
2021/09/17 07:15:36;;;;;;;4.57;1.15;;;19.40;99.90;;;;;;4951584;28;20020;-88
2021/09/17 07:18:03;;;;;;;3.47;1.20;;;19.40;99.90;;;;;;4949233;28;20019;-88
2021/09/17 07:20:28;;;;;;;3.97;1.15;;;19.40;99.90;;;;;;4951752;28;20026;-88
2021/09/17 07:22:54;;;;;;;4.22;1.30;;;19.40;99.90;;;;;;4951465;28;20028;-88
2021/09/17 07:25:20;;;;;;;6.60;1.42;;;19.40;99.90;;;;;;4951834;28;20074;-88
2021/09/17 07:27:46;;;;;;;3.90;1.33;;;19.30;99.90;;;;;;4948307;28;20031;-88
2021/09/17 07:30:13;;;;;;;4.32;1.27;;;19.30;99.90;;;;;;4943328;28;20035;-88
2021/09/17 07:32:39;;;;;;;8.10;1.33;;;19.30;99.90;;;;;;4951676;28;20082;-88
2021/09/17 07:35:05;;;;;;;6.18;1.40;;;19.50;99.90;;;;;;4950285;28;20046;-88
2021/09/17 07:37:31;;;;;;;3.22;1.10;;;19.50;99.90;;;;;;4951496;28;20074;-88
2021/09/17 07:39:57;;;;;;;3.40;1.08;;;19.50;99.90;;;;;;4951424;28;20035;-88
2021/09/17 07:42:23;;;;;;;6.03;1.27;;;19.50;99.90;;;;;;4951888;28;20031;-88
2021/09/17 07:44:49;;;;;;;5.25;1.20;;;19.50;99.90;;;;;;4952221;28;20027;-88
2021/09/17 07:47:14;;;;;;;4.68;1.38;;;19.50;99.90;;;;;;4958594;28;20095;-87
2021/09/17 07:49:40;;;;;;;4.75;1.20;;;19.60;99.90;;;;;;4960301;28;20023;-88
2021/09/17 07:52:07;;;;;;;3.80;1.33;;;19.60;99.90;;;;;;4961071;28;20027;-88
2021/09/17 07:54:32;;;;;;;5.53;1.00;;;19.60;99.90;;;;;;4957665;28;20333;-89
2021/09/17 07:56:58;;;;;;;2.55;0.95;;;19.80;99.90;;;;;;4959856;28;20286;-88
2021/09/17 07:59:24;;;;;;;5.07;1.20;;;20.00;99.90;;;;;;4955183;28;20027;-89
2021/09/17 08:01:50;;;;;;;7.65;1.17;;;20.10;99.90;;;;;;4953624;28;20077;-91
2021/09/17 08:04:16;;;;;;;6.05;2.03;;;20.10;99.90;;;;;;4955443;28;20027;-90
2021/09/17 08:06:41;;;;;;;5.05;1.30;;;20.20;99.90;;;;;;4954815;28;20031;-90
2021/09/17 08:09:07;;;;;;;3.42;1.17;;;20.20;99.90;;;;;;4955490;28;20443;-90
2021/09/17 08:11:34;;;;;;;5.65;1.23;;;20.10;99.90;;;;;;4953479;28;20043;-90
2021/09/17 08:14:00;;;;;;;5.60;1.50;;;20.10;99.90;;;;;;4954508;28;20055;-89
2021/09/17 08:16:26;;;;;;;3.88;0.90;;;20.20;99.90;;;;;;4953264;28;20110;-89
2021/09/17 08:18:54;;;;;;;3.92;1.30;;;20.20;99.90;;;;;;4954552;29;20142;-89
2021/09/17 08:21:20;;;;;;;6.40;1.27;;;20.10;99.90;;;;;;4953789;28;20169;-93
2021/09/17 08:23:46;;;;;;;2.63;1.20;;;20.00;99.90;;;;;;4954899;28;20039;-92
2021/09/17 08:26:12;;;;;;;3.85;1.10;;;20.00;99.90;;;;;;4958754;28;20054;-92
2021/09/17 08:28:37;;;;;;;3.35;1.10;;;20.00;99.90;;;;;;4962968;28;20030;-92
2021/09/17 08:31:03;;;;;;;3.83;1.23;;;20.00;99.90;;;;;;4954054;28;20119;-91
2021/09/17 08:33:30;;;;;;;2.83;1.00;;;19.90;99.90;;;;;;4955342;28;20035;-90
2021/09/17 08:35:57;;;;;;;2.83;1.15;;;19.90;99.90;;;;;;4955481;28;20019;-90
2021/09/17 08:38:22;;;;;;;6.95;1.17;;;19.90;99.90;;;;;;4955734;28;20023;-90
2021/09/17 08:40:53;;;;;;;2.33;0.90;;;20.00;99.90;;;;;;4955442;28;20082;-90
2021/09/17 08:43:21;;;;;;;2.85;1.25;;;20.10;99.90;;;;;;4954266;28;20023;-87
2021/09/17 08:45:47;;;;;;;4.10;1.05;;;20.30;99.90;;;;;;4954147;28;20107;-88
2021/09/17 08:48:14;;;;;;;2.17;0.93;;;20.30;99.90;;;;;;4952484;28;20174;-87
2021/09/17 08:50:40;;;;;;;2.78;1.20;;;20.40;99.90;;;;;;4953909;28;20096;-85
2021/09/17 08:53:06;;;;;;;3.90;0.82;;;20.40;99.90;;;;;;4953748;28;20071;-86
2021/09/17 08:55:32;;;;;;;5.50;1.10;;;20.50;99.90;;;;;;4953929;29;20034;-86
2021/09/17 08:57:58;;;;;;;3.10;1.10;;;20.50;99.90;;;;;;4952094;29;20023;-86
2021/09/17 09:00:26;;;;;;;21.60;2.42;;;20.40;99.90;;;;;;4953774;28;20369;-86
2021/09/17 09:02:57;;;;;;;5.30;1.13;;;20.60;99.90;;;;;;4953423;28;20027;-85
2021/09/17 09:05:30;;;;;;;3.75;1.08;;;20.80;99.90;;;;;;4952655;29;20023;-86
2021/09/17 09:07:56;;;;;;;7.72;1.33;;;20.90;99.90;;;;;;4954334;28;20031;-86
2021/09/17 09:10:22;;;;;;;5.53;1.38;;;21.10;99.90;;;;;;4954117;28;20022;-86
2021/09/17 09:12:52;;;;;;;1.77;0.75;;;21.20;99.90;;;;;;4953793;28;20043;-86
2021/09/17 09:15:20;;;;;;;10.85;2.08;;;21.40;99.90;;;;;;4953277;29;20239;-86
2021/09/17 09:17:47;;;;;;;2.83;0.82;;;21.50;99.90;;;;;;4953407;28;20070;-87
2021/09/17 09:20:24;;;;;;;2.38;0.70;;;21.40;99.90;;;;;;4952023;28;20160;-88
2021/09/17 09:23:06;;;;;;;3.55;1.58;;;21.30;99.90;;;;;;4953409;29;20369;-87
2021/09/17 09:25:33;;;;;;;2.40;0.88;;;21.30;99.90;;;;;;4953492;28;20019;-88
2021/09/17 09:28:13;;;;;;;11.75;5.53;;;21.30;99.90;;;;;;4953362;28;20027;-87
2021/09/17 09:30:39;;;;;;;37.55;17.00;;;21.30;99.90;;;;;;4951854;28;20037;-87
2021/09/17 09:33:21;;;;;;;22.17;12.45;;;21.60;99.90;;;;;;4951901;28;20039;-87
2021/09/17 09:35:53;;;;;;;2.38;1.00;;;21.60;99.90;;;;;;4953750;29;20027;-88
2021/09/17 09:38:32;;;;;;;3.63;0.93;;;21.60;99.90;;;;;;4953720;28;20027;-88
2021/09/17 09:40:59;;;;;;;2.88;0.75;;;21.30;99.90;;;;;;4953468;28;20031;-88
2021/09/17 09:43:35;;;;;;;9.65;2.85;;;21.30;99.90;;;;;;4953040;28;20032;-88
2021/09/17 09:46:40;;;;;;;4.15;1.63;;;21.40;99.90;;;;;;4952889;29;20154;-88
2021/09/17 09:49:13;;;;;;;2.85;0.70;;;21.40;99.90;;;;;;4952444;28;20066;-87
2021/09/17 09:51:42;;;;;;;5.40;0.80;;;21.30;99.90;;;;;;4952831;28;20504;-88
2021/09/17 09:54:09;;;;;;;2.22;0.70;;;21.00;99.90;;;;;;4952562;28;20032;-88
2021/09/17 09:56:38;;;;;;;2.40;0.77;;;20.90;99.90;;;;;;4953174;28;20019;-88
2021/09/17 09:59:06;;;;;;;4.53;1.10;;;20.80;99.90;;;;;;4951506;29;20405;-88
2021/09/17 10:01:40;;;;;;;4.40;0.90;;;21.00;99.90;;;;;;4952454;28;20027;-87
2021/09/17 10:04:07;;;;;;;2.30;0.70;;;21.00;99.90;;;;;;4952302;28;20035;-87
2021/09/17 10:06:39;;;;;;;2.35;1.17;;;21.00;99.90;;;;;;4950949;28;20051;-87
2021/09/17 10:09:08;;;;;;;1.67;0.90;;;21.10;99.90;;;;;;4952477;28;20019;-87
2021/09/17 10:11:34;;;;;;;1.85;0.77;;;21.30;99.90;;;;;;4952594;29;20105;-87
2021/09/17 10:14:02;;;;;;;2.22;0.55;;;21.50;99.90;;;;;;4951614;28;20051;-87
2021/09/17 10:16:31;;;;;;;3.50;0.80;;;21.60;99.90;;;;;;4951053;28;20027;-88
2021/09/17 10:18:58;;;;;;;3.03;0.90;;;21.70;99.90;;;;;;4952136;28;20027;-87
2021/09/17 10:21:45;;;;;;;3.10;1.10;;;21.90;99.90;;;;;;4952447;28;20023;-87
2021/09/17 10:24:26;;;;;;;3.65;1.20;;;22.00;99.90;;;;;;4952100;29;20023;-87
2021/09/17 10:27:01;;;;;;;4.88;1.23;;;21.90;99.90;;;;;;4952204;28;20409;-86
2021/09/17 10:29:35;;;;;;;3.40;1.02;;;21.80;99.90;;;;;;4950983;28;20611;-88
2021/09/17 10:32:03;;;;;;;2.08;0.63;;;21.90;99.90;;;;;;4952014;28;20038;-86
2021/09/17 10:34:40;;;;;;;3.90;0.77;;;21.90;99.90;;;;;;4952124;28;20106;-85
2021/09/17 10:37:07;;;;;;;2.13;0.60;;;21.80;99.90;;;;;;4952507;29;20059;-85
2021/09/17 10:39:34;;;;;;;3.20;0.60;;;21.80;99.90;;;;;;4951925;28;20012;-86
2021/09/17 10:42:13;;;;;;;4.65;1.27;;;22.00;99.90;;;;;;4952254;28;20038;-84
2021/09/17 10:45:18;;;;;;;5.00;1.00;;;22.20;99.90;;;;;;4951837;28;20098;-87
2021/09/17 10:47:43;;;;;;;3.17;1.03;;;22.10;99.90;;;;;;4949937;28;20039;-86
2021/09/17 10:50:11;;;;;;;2.28;0.88;;;22.00;99.90;;;;;;4950781;28;20279;-85
2021/09/17 10:52:43;;;;;;;1.85;0.75;;;22.10;99.90;;;;;;4951954;28;20058;-86
2021/09/17 10:55:44;;;;;;;2.75;1.10;;;22.10;99.90;;;;;;4951853;28;20075;-84
2021/09/17 10:58:24;;;;;;;3.00;0.80;;;22.30;99.90;;;;;;4951734;28;20070;-86
2021/09/17 11:00:55;;;;;;;1.88;1.00;;;22.30;99.90;;;;;;4951228;29;20147;-86
2021/09/17 11:03:39;;;;;;;4.13;0.70;;;22.30;99.90;;;;;;4951733;28;20395;-86
2021/09/17 11:06:53;;;;;;;1.48;0.80;;;22.30;99.90;;;;;;4950893;28;20043;-87
2021/09/17 11:09:11;;;;;;;1.98;0.70;;;22.20;99.90;;;;;;4951723;28;20031;-87
2021/09/17 11:11:43;;;;;;;3.30;0.85;;;22.20;99.90;;;;;;4952669;29;20023;-87
2021/09/17 11:14:17;;;;;;;6.25;0.82;;;22.20;99.90;;;;;;4951888;29;20054;-86
2021/09/17 11:16:46;;;;;;;4.68;0.70;;;22.30;99.90;;;;;;4937581;29;20551;-87
2021/09/17 11:19:17;;;;;;;2.63;0.90;;;22.30;99.90;;;;;;4951030;29;20023;-87
2021/09/17 11:21:46;;;;;;;4.47;0.60;;;22.10;99.90;;;;;;4950776;29;20042;-86
2021/09/17 11:24:19;;;;;;;1.77;0.50;;;22.20;99.90;;;;;;4952183;28;20555;-87
2021/09/17 11:26:49;;;;;;;2.75;0.68;;;22.20;99.90;;;;;;4955938;28;20051;-88
2021/09/17 11:29:17;;;;;;;2.75;0.68;;;22.40;99.90;;;;;;4955320;29;20551;-86
2021/09/17 11:31:45;;;;;;;2.40;0.43;;;22.50;99.90;;;;;;4953966;29;20075;-86
2021/09/17 11:34:14;;;;;;;1.02;0.50;;;22.40;99.90;;;;;;4953909;28;20046;-91
2021/09/17 11:36:41;;;;;;;2.90;0.60;;;22.20;99.90;;;;;;4956143;29;20618;-89
2021/09/17 11:39:37;;;;;;;1.33;0.50;;;22.20;99.90;;;;;;4954254;28;20031;-92
2021/09/17 11:42:13;;;;;;;1.15;0.50;;;22.40;99.90;;;;;;4954089;28;20492;-88
2021/09/17 11:44:51;;;;;;;1.02;0.63;;;22.40;99.90;;;;;;4954978;28;20019;-92
2021/09/17 11:47:28;;;;;;;0.95;0.47;;;22.40;99.90;;;;;;4954830;28;20027;-92
2021/09/17 11:49:58;;;;;;;1.73;0.80;;;22.50;99.90;;;;;;4954881;28;20086;-91
2021/09/17 11:52:24;;;;;;;2.97;0.70;;;22.50;99.90;;;;;;4954944;28;20042;-91
2021/09/17 11:55:08;;;;;;;3.15;0.55;;;22.40;99.90;;;;;;4954449;28;20122;-90
2021/09/17 11:57:37;;;;;;;1.88;0.50;;;22.50;99.90;;;;;;4955018;28;20054;-90
2021/09/17 12:00:12;;;;;;;3.08;0.63;;;22.70;99.90;;;;;;4952687;28;20071;-91
2021/09/17 12:02:38;;;;;;;2.58;0.55;;;22.70;99.90;;;;;;4954971;28;20019;-90
2021/09/17 12:05:07;;;;;;;3.97;0.70;;;22.80;99.90;;;;;;4953997;28;20051;-90
2021/09/17 12:07:35;;;;;;;1.38;0.60;;;22.90;99.90;;;;;;4955081;28;20118;-91
2021/09/17 12:10:14;;;;;;;1.35;0.70;;;23.20;99.90;;;;;;4953853;28;20019;-90
2021/09/17 12:12:46;;;;;;;1.88;0.90;;;23.20;99.90;;;;;;4955162;28;20031;-91
2021/09/17 12:15:25;;;;;;;2.42;0.90;;;22.90;99.90;;;;;;4955861;28;20058;-90
2021/09/17 12:17:58;;;;;;;2.67;1.00;;;22.80;99.90;;;;;;4956010;28;20031;-90
2021/09/17 12:20:44;;;;;;;3.50;0.77;;;22.60;99.90;;;;;;4954895;28;20051;-91
2021/09/17 12:23:19;;;;;;;1.98;0.90;;;22.70;99.90;;;;;;4955100;28;20143;-90
2021/09/17 12:25:46;;;;;;;1.23;0.63;;;22.70;99.90;;;;;;4955015;28;20035;-90
2021/09/17 12:28:20;;;;;;;1.10;0.70;;;22.60;99.90;;;;;;4955830;28;20027;-90
2021/09/17 12:30:46;;;;;;;1.58;0.70;;;22.90;99.90;;;;;;4953548;28;20023;-90
2021/09/17 12:33:32;;;;;;;1.05;0.50;;;22.80;99.90;;;;;;4953162;28;20039;-91
2021/09/17 12:36:12;;;;;;;4.32;1.10;;;23.20;99.90;;;;;;4951951;28;20027;-91
2021/09/17 12:38:38;;;;;;;1.80;0.70;;;23.30;99.60;;;;;;4953642;28;20090;-93
2021/09/17 12:41:12;;;;;;;2.25;1.15;;;23.20;99.80;;;;;;4952793;28;20042;-90
2021/09/17 12:43:40;;;;;;;1.60;0.65;;;23.00;99.90;;;;;;4953997;28;20019;-89
2021/09/17 12:46:09;;;;;;;3.30;0.95;;;23.10;98.80;;;;;;4955305;28;20071;-90
2021/09/17 12:48:37;;;;;;;2.63;0.90;;;23.00;99.90;;;;;;4953231;28;20114;-88
2021/09/17 12:51:04;;;;;;;2.10;0.80;;;22.80;99.90;;;;;;4953273;28;20447;-89
2021/09/17 12:53:38;;;;;;;1.80;0.80;;;22.80;99.90;;;;;;4953390;28;20066;-85
2021/09/17 12:56:07;;;;;;;1.15;0.55;;;22.70;99.40;;;;;;4954704;28;20031;-76
2021/09/17 12:58:33;;;;;;;1.35;0.70;;;22.80;99.80;;;;;;4953837;29;20492;-73
2021/09/17 13:01:00;;;;;;;1.45;0.70;;;22.80;99.50;;;;;;4953750;28;20019;-75
2021/09/17 13:03:27;;;;;;;2.97;1.00;;;22.90;99.90;;;;;;4953665;29;20023;-75
2021/09/17 13:05:55;;;;;;;2.92;0.70;;;23.10;99.90;;;;;;4953482;29;20020;-75
2021/09/17 13:08:22;;;;;;;3.70;1.10;;;23.20;99.00;;;;;;4952270;29;20065;-74
2021/09/17 13:10:48;;;;;;;3.33;0.90;;;23.30;99.90;;;;;;4953979;28;20473;-73
2021/09/17 13:13:14;;;;;;;2.95;0.95;;;23.40;99.90;;;;;;4953368;28;20118;-73
2021/09/17 13:15:41;;;;;;;6.68;1.40;;;23.30;99.90;;;;;;4953478;28;20114;-72
2021/09/17 13:18:08;;;;;;;4.35;1.05;;;23.50;99.90;;;;;;4953214;29;20023;-71
2021/09/17 13:20:35;;;;;;;4.32;1.10;;;23.30;99.90;;;;;;4953536;29;20029;-71
2021/09/17 13:23:01;;;;;;;3.35;1.08;;;23.50;99.90;;;;;;4953371;28;20028;-72
2021/09/17 13:25:28;;;;;;;2.85;1.05;;;23.70;99.90;;;;;;4953033;28;20027;-71
2021/09/17 13:27:55;;;;;;;1.90;0.60;;;23.90;99.90;;;;;;4953551;28;20027;-71
2021/09/17 13:30:29;;;;;;;4.15;0.80;;;23.80;99.90;;;;;;4953064;28;20089;-71
2021/09/17 13:32:56;;;;;;;3.72;0.93;;;23.90;99.90;;;;;;4953103;28;20401;-71
2021/09/17 13:35:26;;;;;;;4.63;1.05;;;23.60;99.90;;;;;;4953455;29;20047;-71
2021/09/17 13:37:53;;;;;;;2.47;0.75;;;23.50;99.90;;;;;;4953035;28;20027;-72
2021/09/17 13:40:20;;;;;;;5.38;0.88;;;23.70;99.90;;;;;;4952806;29;20019;-72